createdAt,value
2022-08-22T00:00:14.754Z,91.60
2022-08-22T00:03:03.385Z,67.50
2022-08-22T00:03:18.512Z,91.30
2022-08-22T00:06:08.113Z,91.30
2022-08-22T00:08:58.009Z,91.30
2022-08-22T00:11:50.100Z,91.40
2022-08-22T00:14:45.969Z,91.40
2022-08-22T00:17:31.617Z,91.50
2022-08-22T00:20:15.777Z,91.50
2022-08-22T00:23:13.720Z,91.60
2022-08-22T00:25:51.374Z,91.80
2022-08-22T00:28:34.076Z,91.90
2022-08-22T00:31:24.934Z,92.10
2022-08-22T00:34:13.047Z,92.30
2022-08-22T00:36:52.227Z,92.40
2022-08-22T00:39:38.832Z,92.70
2022-08-22T00:42:33.708Z,92.80
2022-08-22T00:45:06.782Z,93.00
2022-08-22T00:47:42.593Z,93.10
2022-08-22T00:50:31.372Z,93.20
2022-08-22T00:53:36.181Z,93.30
2022-08-22T00:56:27.716Z,93.30
2022-08-22T00:59:26.912Z,93.30
2022-08-22T01:02:28.105Z,93.30
2022-08-22T01:05:18.372Z,93.40
2022-08-22T01:07:56.618Z,93.50
2022-08-22T01:11:07.641Z,93.60
2022-08-22T01:14:04.789Z,93.70
2022-08-22T01:16:54.947Z,93.70
2022-08-22T01:19:33.780Z,93.70
2022-08-22T01:22:48.294Z,93.70
2022-08-22T01:25:56.789Z,93.60
2022-08-22T01:28:51.508Z,93.50
2022-08-22T01:31:47.916Z,93.40
2022-08-22T01:34:52.525Z,93.30
2022-08-22T01:37:43.619Z,93.30
2022-08-22T01:40:13.598Z,93.20
2022-08-22T01:43:16.990Z,93.20
2022-08-22T01:45:49.533Z,93.20
2022-08-22T01:48:34.605Z,93.10
2022-08-22T01:51:19.952Z,93.10
2022-08-22T01:54:04.708Z,93.10
2022-08-22T01:56:41.518Z,93.20
2022-08-22T01:59:13.903Z,93.30
2022-08-22T02:01:46.071Z,93.40
2022-08-22T02:04:28.757Z,93.50
2022-08-22T02:07:32.109Z,93.60
2022-08-22T02:10:41.080Z,93.80
2022-08-22T02:13:13.752Z,93.80
2022-08-22T02:15:40.443Z,93.70
2022-08-22T02:18:07.155Z,93.70
2022-08-22T02:21:03.358Z,93.70
2022-08-22T02:24:01.344Z,93.70
2022-08-22T02:26:50.102Z,93.60
2022-08-22T02:29:29.496Z,93.60
2022-08-22T02:32:08.390Z,93.60
2022-08-22T02:35:07.188Z,93.70
2022-08-22T02:37:33.886Z,93.70
2022-08-22T02:40:34.572Z,93.60
2022-08-22T02:43:07.699Z,93.70
2022-08-22T02:45:48.269Z,93.80
2022-08-22T02:48:30.024Z,94.00
2022-08-22T02:51:09.415Z,94.10
2022-08-22T02:53:49.769Z,94.20
2022-08-22T02:56:35.749Z,94.30
2022-08-22T02:59:30.385Z,94.60
2022-08-22T03:01:58.133Z,94.40
2022-08-22T03:04:47.864Z,94.40
2022-08-22T03:07:20.599Z,94.50
2022-08-22T03:10:10.401Z,94.50
2022-08-22T03:13:17.233Z,94.50
2022-08-22T03:15:59.761Z,94.50
2022-08-22T03:18:31.313Z,94.50
2022-08-22T03:21:35.450Z,94.40
2022-08-22T03:24:31.536Z,94.50
2022-08-22T03:27:02.549Z,94.40
2022-08-22T03:29:40.503Z,94.40
2022-08-22T03:32:09.758Z,94.30
2022-08-22T03:34:37.453Z,94.50
2022-08-22T03:37:21.193Z,94.40
2022-08-22T03:39:50.997Z,94.90
2022-08-22T03:43:00.127Z,94.60
2022-08-22T03:45:49.423Z,94.50
2022-08-22T03:48:31.241Z,94.40
2022-08-22T03:51:29.890Z,94.40
2022-08-22T03:54:17.924Z,94.20
2022-08-22T03:57:00.599Z,94.10
2022-08-22T03:59:42.702Z,94.10
2022-08-22T04:02:42.929Z,94.20
2022-08-22T04:05:38.321Z,94.20
2022-08-22T04:08:37.547Z,94.40
2022-08-22T04:11:32.621Z,94.50
2022-08-22T04:14:26.979Z,94.60
2022-08-22T04:17:06.324Z,94.50
2022-08-22T04:19:51.071Z,94.50
2022-08-22T04:22:53.329Z,94.50
2022-08-22T04:25:25.596Z,94.40
2022-08-22T04:28:05.604Z,94.40
2022-08-22T04:30:40.027Z,94.40
2022-08-22T04:33:12.376Z,94.30
2022-08-22T04:35:45.401Z,94.20
2022-08-22T04:38:33.189Z,94.20
2022-08-22T04:41:12.282Z,94.10
2022-08-22T04:43:54.716Z,94.10
2022-08-22T04:46:57.410Z,94.00
2022-08-22T04:49:31.717Z,93.90
2022-08-22T04:52:01.406Z,93.90
2022-08-22T04:55:00.589Z,93.90
2022-08-22T04:58:18.800Z,93.90
2022-08-22T05:01:09.256Z,93.80
2022-08-22T05:04:06.650Z,93.80
2022-08-22T05:06:38.705Z,93.80
2022-08-22T05:09:16.069Z,93.90
2022-08-22T05:11:45.829Z,93.90
2022-08-22T05:14:36.655Z,93.80
2022-08-22T05:17:07.437Z,93.80
2022-08-22T05:19:38.381Z,93.70
2022-08-22T05:22:13.569Z,93.80
2022-08-22T05:24:44.149Z,93.80
2022-08-22T05:27:24.065Z,93.80
2022-08-22T05:29:54.716Z,93.80
2022-08-22T05:32:30.899Z,93.90
2022-08-22T05:35:03.567Z,94.10
2022-08-22T05:37:39.098Z,93.80
2022-08-22T05:40:07.375Z,93.70
2022-08-22T05:42:37.588Z,93.50
2022-08-22T05:45:11.564Z,93.40
2022-08-22T05:47:44.935Z,93.40
2022-08-22T05:50:28.009Z,93.30
2022-08-22T05:53:21.569Z,93.20
2022-08-22T05:55:48.633Z,93.10
2022-08-22T05:59:00.360Z,93.00
2022-08-22T06:01:38.735Z,92.70
2022-08-22T06:04:21.820Z,92.50
2022-08-22T06:07:22.144Z,92.40
2022-08-22T06:09:48.825Z,92.30
2022-08-22T06:12:22.199Z,92.20
2022-08-22T06:15:11.886Z,92.10
2022-08-22T06:17:47.144Z,91.90
2022-08-22T06:20:25.771Z,92.00
2022-08-22T06:23:00.325Z,91.90
2022-08-22T06:25:37.621Z,91.80
2022-08-22T06:28:09.238Z,91.80
2022-08-22T06:30:39.538Z,91.80
2022-08-22T06:33:13.580Z,91.90
2022-08-22T06:36:07.947Z,92.00
2022-08-22T06:39:03.973Z,91.70
2022-08-22T06:41:33.880Z,91.30
2022-08-22T06:44:03.806Z,91.00
2022-08-22T06:46:34.265Z,90.70
2022-08-22T06:49:03.001Z,90.90
2022-08-22T06:51:30.511Z,90.70
2022-08-22T06:54:01.751Z,90.60
2022-08-22T06:56:38.715Z,90.60
2022-08-22T06:59:12.613Z,90.50
2022-08-22T07:02:03.668Z,90.20
2022-08-22T07:04:31.228Z,89.60
2022-08-22T07:07:01.419Z,88.90
2022-08-22T07:09:34.704Z,88.30
2022-08-22T07:12:10.265Z,87.70
2022-08-22T07:14:43.257Z,86.50
2022-08-22T07:17:26.461Z,85.80
2022-08-22T07:20:04.879Z,85.30
2022-08-22T07:22:35.718Z,84.80
2022-08-22T07:25:21.317Z,84.40
2022-08-22T07:28:19.529Z,83.80
2022-08-22T07:30:59.319Z,83.20
2022-08-22T07:33:42.374Z,82.80
2022-08-22T07:36:33.981Z,81.10
2022-08-22T07:39:17.702Z,80.30
2022-08-22T07:41:59.554Z,80.00
2022-08-22T07:44:38.525Z,80.00
2022-08-22T07:47:15.555Z,79.30
2022-08-22T07:49:54.173Z,78.50
2022-08-22T07:52:23.146Z,77.20
2022-08-22T07:55:01.768Z,76.70
2022-08-22T07:57:36.204Z,76.10
2022-08-22T08:00:11.241Z,75.20
2022-08-22T08:02:46.510Z,74.40
2022-08-22T08:05:14.401Z,73.90
2022-08-22T08:07:45.370Z,73.60
2022-08-22T08:10:21.488Z,72.70
2022-08-22T08:13:02.574Z,71.30
2022-08-22T08:15:34.286Z,71.40
2022-08-22T08:18:06.242Z,70.90
2022-08-22T08:20:36.454Z,70.50
2022-08-22T08:23:09.952Z,69.50
2022-08-22T08:26:08.805Z,68.50
2022-08-22T08:28:42.936Z,66.30
2022-08-22T08:31:32.650Z,66.70
2022-08-22T08:34:11.666Z,65.40
2022-08-22T08:36:59.709Z,65.10
2022-08-22T08:39:50.590Z,64.70
2022-08-22T08:42:32.581Z,63.70
2022-08-22T08:45:33.272Z,63.30
2022-08-22T08:48:27.189Z,62.60
2022-08-22T08:50:56.969Z,61.30
2022-08-22T08:53:49.457Z,60.70
2022-08-22T08:56:36.085Z,59.50
2022-08-22T08:59:24.001Z,58.80
2022-08-22T09:05:34.104Z,56.70
2022-08-22T09:08:38.989Z,55.70
2022-08-22T09:11:18.762Z,54.10
2022-08-22T09:14:00.083Z,54.00
2022-08-22T09:17:00.697Z,53.00
2022-08-22T09:19:42.586Z,51.90
2022-08-22T09:22:33.458Z,51.70
2022-08-22T09:25:39.188Z,50.70
2022-08-22T09:28:16.670Z,50.90
2022-08-22T09:31:16.935Z,49.90
2022-08-22T09:34:23.883Z,48.80
2022-08-22T09:37:21.605Z,48.60
2022-08-22T09:40:17.330Z,47.30
2022-08-22T09:42:59.889Z,45.40
2022-08-22T09:45:55.130Z,43.80
2022-08-22T09:48:41.631Z,42.70
2022-08-22T09:51:32.432Z,41.10
2022-08-22T09:54:14.446Z,41.30
2022-08-22T09:57:00.910Z,40.10
2022-08-22T09:59:42.605Z,40.10
2022-08-22T10:02:44.329Z,40.30
2022-08-22T10:05:40.572Z,40.10
2022-08-22T10:08:46.240Z,39.40
2022-08-22T10:11:31.893Z,39.50
2022-08-22T10:14:02.269Z,39.40
2022-08-22T10:17:07.189Z,39.70
2022-08-22T10:19:45.712Z,39.00
2022-08-22T10:22:31.391Z,38.70
2022-08-22T10:24:58.649Z,39.40
2022-08-22T10:27:46.649Z,39.30
2022-08-22T10:30:19.619Z,39.10
2022-08-22T10:33:01.680Z,38.90
2022-08-22T10:35:44.053Z,38.40
2022-08-22T10:38:29.055Z,38.30
2022-08-22T10:41:27.135Z,37.90
2022-08-22T10:44:01.503Z,37.90
2022-08-22T10:46:56.044Z,38.20
2022-08-22T10:49:37.489Z,37.40
2022-08-22T10:52:20.361Z,37.30
2022-08-22T10:54:52.514Z,37.60
2022-08-22T10:57:36.368Z,37.60
2022-08-22T11:00:27.028Z,37.00
2022-08-22T11:03:42.433Z,36.90
2022-08-22T11:06:24.151Z,36.80
2022-08-22T11:09:07.102Z,36.70
2022-08-22T11:11:42.584Z,36.50
2022-08-22T11:14:50.502Z,36.00
2022-08-22T11:17:39.751Z,35.60
2022-08-22T11:20:48.496Z,35.80
2022-08-22T11:23:24.322Z,35.50
2022-08-22T11:26:13.403Z,35.50
2022-08-22T11:29:14.207Z,36.50
2022-08-22T11:32:19.062Z,35.30
2022-08-22T11:35:13.808Z,35.00
2022-08-22T11:38:04.011Z,34.50
2022-08-22T11:41:08.096Z,33.70
2022-08-22T11:43:40.716Z,33.30
2022-08-22T11:46:20.045Z,33.60
2022-08-22T11:49:01.245Z,33.50
2022-08-22T11:51:52.725Z,33.70
2022-08-22T11:54:42.289Z,33.90
2022-08-22T11:57:20.412Z,33.50
2022-08-22T11:59:53.481Z,33.80
2022-08-22T12:03:02.075Z,34.20
2022-08-22T12:05:39.817Z,33.70
2022-08-22T12:08:13.527Z,33.40
2022-08-22T12:11:05.831Z,32.70
2022-08-22T12:13:51.071Z,32.40
2022-08-22T12:17:07.356Z,32.00
2022-08-22T12:20:14.618Z,31.80
2022-08-22T12:22:49.863Z,32.00
2022-08-22T12:25:52.847Z,32.50
2022-08-22T12:28:52.644Z,32.70
2022-08-22T12:31:50.145Z,32.40
2022-08-22T12:34:31.952Z,32.30
2022-08-22T12:37:06.539Z,32.40
2022-08-22T12:40:00.252Z,32.40
2022-08-22T12:42:46.799Z,31.80
2022-08-22T12:45:33.769Z,31.80
2022-08-22T12:48:57.956Z,31.00
2022-08-22T12:52:09.133Z,31.50
2022-08-22T12:55:04.686Z,31.60
2022-08-22T12:57:41.724Z,31.80
2022-08-22T13:00:22.958Z,31.90
2022-08-22T13:02:53.832Z,31.40
2022-08-22T13:05:38.362Z,31.60
2022-08-22T13:08:13.972Z,30.70
2022-08-22T13:10:58.212Z,30.00
2022-08-22T13:13:39.047Z,30.00
2022-08-22T13:16:17.557Z,30.50
2022-08-22T13:18:53.644Z,30.80
2022-08-22T13:21:26.245Z,31.30
2022-08-22T13:24:11.168Z,31.20
2022-08-22T13:26:52.523Z,30.10
2022-08-22T13:29:39.631Z,30.30
2022-08-22T13:32:18.923Z,30.50
2022-08-22T13:34:53.884Z,30.40
2022-08-22T13:37:44.252Z,30.40
2022-08-22T13:40:21.393Z,30.00
2022-08-22T13:42:54.155Z,30.00
2022-08-22T13:45:32.491Z,30.00
2022-08-22T13:48:03.547Z,30.10
2022-08-22T13:50:37.127Z,30.10
2022-08-22T13:53:31.996Z,30.00
2022-08-22T13:56:20.992Z,29.70
2022-08-22T13:58:57.997Z,29.60
2022-08-22T14:01:57.502Z,29.80
2022-08-22T14:04:36.244Z,29.00
2022-08-22T14:07:06.127Z,29.30
2022-08-22T14:09:59.975Z,29.30
2022-08-22T14:12:49.955Z,29.00
2022-08-22T14:15:23.582Z,29.00
2022-08-22T14:17:55.920Z,29.00
2022-08-22T14:20:32.238Z,28.70
2022-08-22T14:23:29.302Z,28.70
2022-08-22T14:25:57.387Z,28.50
2022-08-22T14:28:27.866Z,28.30
2022-08-22T14:31:04.151Z,28.10
2022-08-22T14:33:36.480Z,28.10
2022-08-22T14:36:17.896Z,27.60
2022-08-22T14:39:11.331Z,27.50
2022-08-22T14:41:52.854Z,27.70
2022-08-22T14:44:59.420Z,27.30
2022-08-22T14:47:55.069Z,27.20
2022-08-22T14:50:40.148Z,27.50
2022-08-22T14:53:22.260Z,27.20
2022-08-22T14:56:08.900Z,27.10
2022-08-22T14:59:02.825Z,27.50
2022-08-22T15:01:32.817Z,26.40
2022-08-22T15:04:04.917Z,26.30
2022-08-22T15:06:55.161Z,26.20
2022-08-22T15:09:24.849Z,24.90
2022-08-22T15:11:53.109Z,24.40
2022-08-22T15:14:28.073Z,23.90
2022-08-22T15:16:59.004Z,22.80
2022-08-22T15:19:25.663Z,22.40
2022-08-22T15:22:20.383Z,22.30
2022-08-22T15:24:56.304Z,20.20
2022-08-22T15:27:25.404Z,20.10
2022-08-22T15:29:59.514Z,19.50
2022-08-22T15:32:29.738Z,18.50
2022-08-22T15:35:05.868Z,18.20
2022-08-22T15:37:52.509Z,17.30
2022-08-22T15:40:33.865Z,17.30
2022-08-22T15:43:13.349Z,16.60
2022-08-22T15:45:42.778Z,16.40
2022-08-22T15:48:33.975Z,16.60
2022-08-22T15:51:10.228Z,15.90
2022-08-22T15:54:25.571Z,15.90
2022-08-22T15:56:52.806Z,15.50
2022-08-22T15:59:52.594Z,15.60
2022-08-22T16:02:55.765Z,14.90
2022-08-22T16:05:36.634Z,14.60
2022-08-22T16:08:18.164Z,14.20
2022-08-22T16:10:56.094Z,14.10
2022-08-22T16:13:29.540Z,13.80
2022-08-22T16:16:10.253Z,14.10
2022-08-22T16:18:39.800Z,14.00
2022-08-22T16:21:16.673Z,14.30
2022-08-22T16:23:46.457Z,14.00
2022-08-22T16:26:24.635Z,13.90
2022-08-22T16:28:59.039Z,13.60
2022-08-22T16:31:34.192Z,13.10
2022-08-22T16:34:19.020Z,13.20
2022-08-22T16:36:54.894Z,12.60
2022-08-22T16:39:21.529Z,12.60
2022-08-22T16:41:51.440Z,12.80
2022-08-22T16:44:30.321Z,13.00
2022-08-22T16:47:13.784Z,13.30
2022-08-22T16:49:49.616Z,14.20
2022-08-22T16:52:25.267Z,15.40
2022-08-22T16:55:01.173Z,16.20
2022-08-22T16:57:27.961Z,16.50
2022-08-22T17:00:22.958Z,16.60
2022-08-22T17:03:14.416Z,17.10
2022-08-22T17:05:54.748Z,17.90
2022-08-22T17:09:09.571Z,18.80
2022-08-22T17:11:54.827Z,19.40
2022-08-22T17:14:52.558Z,19.90
2022-08-22T17:17:57.045Z,20.50
2022-08-22T17:20:45.292Z,21.50
2022-08-22T17:23:11.992Z,22.20
2022-08-22T17:26:16.060Z,22.70
2022-08-22T17:29:09.361Z,23.30
2022-08-22T17:31:52.694Z,23.60
2022-08-22T17:34:33.575Z,23.50
2022-08-22T17:37:26.122Z,23.90
2022-08-22T17:40:20.366Z,24.00
2022-08-22T17:43:27.415Z,24.00
2022-08-22T17:46:21.214Z,23.70
2022-08-22T17:49:03.764Z,22.40
2022-08-22T17:51:33.172Z,21.50
2022-08-22T17:54:24.237Z,21.00
2022-08-22T17:57:11.947Z,20.60
2022-08-22T17:59:59.670Z,20.30
2022-08-22T18:02:39.220Z,19.90
2022-08-22T18:05:10.676Z,19.90
2022-08-22T18:08:03.198Z,19.70
2022-08-22T18:10:52.063Z,19.50
2022-08-22T18:13:56.584Z,20.10
2022-08-22T18:16:46.316Z,20.20
2022-08-22T18:19:42.654Z,20.90
2022-08-22T18:22:22.145Z,21.40
2022-08-22T18:25:13.129Z,22.10
2022-08-22T18:27:58.706Z,23.10
2022-08-22T18:30:50.601Z,24.40
2022-08-22T18:33:32.991Z,25.40
2022-08-22T18:36:09.022Z,26.50
2022-08-22T18:39:03.637Z,27.30
2022-08-22T18:41:57.748Z,28.40
2022-08-22T18:44:28.624Z,29.10
2022-08-22T18:47:20.555Z,29.80
2022-08-22T18:49:54.252Z,31.00
2022-08-22T18:52:27.282Z,31.70
2022-08-22T18:55:02.925Z,33.30
2022-08-22T18:57:57.899Z,33.90
2022-08-22T19:00:47.980Z,34.90
2022-08-22T19:03:51.449Z,35.80
2022-08-22T19:06:52.055Z,36.70
2022-08-22T19:09:49.773Z,36.50
2022-08-22T19:12:50.053Z,36.60
2022-08-22T19:15:59.437Z,36.50
2022-08-22T19:18:36.213Z,36.70
2022-08-22T19:21:43.911Z,36.60
2022-08-22T19:24:19.866Z,37.50
2022-08-22T19:27:08.529Z,38.20
2022-08-22T19:29:35.913Z,38.90
2022-08-22T19:32:05.918Z,39.50
2022-08-22T19:34:47.153Z,40.10
2022-08-22T19:37:32.574Z,41.00
2022-08-22T19:40:10.215Z,41.70
2022-08-22T19:42:40.358Z,42.50
2022-08-22T19:45:27.131Z,43.10
2022-08-22T19:48:14.583Z,44.10
2022-08-22T19:50:43.026Z,45.10
2022-08-22T19:53:51.169Z,45.70
2022-08-22T19:56:39.613Z,47.10
2022-08-22T19:59:20.357Z,48.40
2022-08-22T20:01:57.221Z,49.40
2022-08-22T20:04:42.694Z,50.90
2022-08-22T20:07:48.540Z,52.00
2022-08-22T20:11:02.893Z,52.40
2022-08-22T20:13:35.444Z,52.50
2022-08-22T20:16:22.234Z,52.90
2022-08-22T20:19:03.548Z,53.60
2022-08-22T20:22:13.609Z,53.70
2022-08-22T20:25:41.399Z,55.10
2022-08-22T20:28:03.046Z,56.40
2022-08-22T20:30:43.429Z,57.50
2022-08-22T20:33:23.393Z,58.90
2022-08-22T20:36:29.467Z,59.50
2022-08-22T20:39:08.161Z,60.30
2022-08-22T20:41:41.079Z,61.20
2022-08-22T20:44:20.515Z,62.00
2022-08-22T20:46:55.201Z,62.50
2022-08-22T20:49:35.936Z,63.20
2022-08-22T20:52:08.896Z,62.90
2022-08-22T20:54:38.887Z,62.90
2022-08-22T20:57:16.132Z,62.70
2022-08-22T20:59:58.721Z,62.70
2022-08-22T21:02:30.150Z,62.20
2022-08-22T21:05:04.257Z,61.90
2022-08-22T21:07:35.477Z,61.70
2022-08-22T21:10:42.444Z,61.00
2022-08-22T21:13:16.565Z,61.00
2022-08-22T21:15:52.969Z,61.10
2022-08-22T21:18:39.285Z,61.60
2022-08-22T21:21:20.517Z,62.20
2022-08-22T21:23:55.502Z,62.60
2022-08-22T21:26:32.674Z,62.90
2022-08-22T21:29:08.206Z,63.10
2022-08-22T21:31:48.657Z,63.20
2022-08-22T21:34:24.450Z,63.40
2022-08-22T21:36:53.634Z,63.40
2022-08-22T21:39:36.880Z,63.50
2022-08-22T21:42:03.599Z,63.80
2022-08-22T21:44:39.403Z,63.80
2022-08-22T21:47:31.152Z,64.50
2022-08-22T21:50:23.108Z,64.70
2022-08-22T21:52:55.862Z,64.90
2022-08-22T21:55:34.467Z,65.20
2022-08-22T21:58:36.114Z,65.90
2022-08-22T22:01:27.642Z,66.50
2022-08-22T22:03:55.001Z,67.30
2022-08-22T22:06:21.755Z,67.70
2022-08-22T22:08:48.974Z,68.20
2022-08-22T22:11:16.326Z,68.50
2022-08-22T22:13:43.543Z,68.50
2022-08-22T22:16:14.342Z,68.70
2022-08-22T22:18:41.189Z,68.80
2022-08-22T22:21:09.234Z,68.90
2022-08-22T22:23:35.943Z,70.10
2022-08-22T22:26:04.959Z,69.70
2022-08-22T22:28:41.018Z,70.30
2022-08-22T22:31:08.185Z,71.00
2022-08-22T22:33:38.236Z,71.40
2022-08-22T22:36:08.944Z,72.10
2022-08-22T22:38:36.835Z,72.70
2022-08-22T22:41:03.618Z,73.00
2022-08-22T22:43:30.646Z,73.30
2022-08-22T22:45:58.957Z,73.60
2022-08-22T22:48:25.878Z,73.70
2022-08-22T22:50:54.025Z,73.70
2022-08-22T22:53:38.273Z,73.80
2022-08-22T22:56:07.395Z,73.80
2022-08-22T22:58:36.848Z,74.10
2022-08-22T23:01:14.040Z,74.20
2022-08-22T23:03:41.044Z,74.30
2022-08-22T23:06:13.150Z,74.40
2022-08-22T23:08:40.318Z,74.80
2022-08-22T23:11:24.944Z,75.10
2022-08-22T23:13:52.231Z,75.70
2022-08-22T23:16:22.401Z,75.80
2022-08-22T23:18:49.964Z,75.90
2022-08-22T23:21:25.385Z,75.90
2022-08-22T23:23:54.826Z,76.30
2022-08-22T23:26:21.518Z,76.80
2022-08-22T23:28:48.636Z,76.90
2022-08-22T23:31:16.861Z,77.30
2022-08-22T23:33:44.648Z,77.60
2022-08-22T23:36:14.808Z,78.00
2022-08-22T23:38:41.813Z,78.20
2022-08-22T23:41:10.226Z,78.40
2022-08-22T23:43:40.804Z,78.90
2022-08-22T23:46:07.501Z,79.30
2022-08-22T23:48:34.268Z,79.50
2022-08-22T23:51:00.976Z,79.90
2022-08-22T23:53:29.003Z,80.00
2022-08-22T23:55:55.922Z,80.00
2022-08-22T23:58:23.341Z,80.00
